createdAt,value
2022-07-25T00:04:14.782Z,21.29
2022-07-25T00:09:35.674Z,21.25
2022-07-25T00:14:56.183Z,21.20
2022-07-25T00:20:17.053Z,21.18
2022-07-25T00:25:37.794Z,21.20
2022-07-25T00:30:58.618Z,21.09
2022-07-25T00:36:19.503Z,20.97
2022-07-25T00:41:40.385Z,20.93
2022-07-25T00:47:01.060Z,20.97
2022-07-25T00:52:21.762Z,20.92
2022-07-25T00:57:42.367Z,20.83
2022-07-25T01:03:03.151Z,20.84
2022-07-25T01:08:25.280Z,20.78
2022-07-25T01:13:45.974Z,20.81
2022-07-25T01:19:06.976Z,20.81
2022-07-25T01:24:29.297Z,20.85
2022-07-25T01:29:50.200Z,20.93
2022-07-25T01:35:11.848Z,20.90
2022-07-25T01:40:32.410Z,20.99
2022-07-25T01:45:53.122Z,20.95
2022-07-25T01:51:13.671Z,20.73
2022-07-25T01:56:34.341Z,20.71
2022-07-25T02:01:54.902Z,20.63
2022-07-25T02:07:15.597Z,20.43
2022-07-25T02:12:36.290Z,20.46
2022-07-25T02:17:56.936Z,20.48
2022-07-25T02:23:17.549Z,20.43
2022-07-25T02:28:38.351Z,20.28
2022-07-25T02:33:59.019Z,20.27
2022-07-25T02:39:19.855Z,20.32
2022-07-25T02:44:40.484Z,20.33
2022-07-25T02:50:01.202Z,20.36
2022-07-25T02:55:21.723Z,20.41
2022-07-25T03:00:44.277Z,20.45
2022-07-25T03:06:05.614Z,20.49
2022-07-25T03:11:26.443Z,20.49
2022-07-25T03:16:47.149Z,20.45
2022-07-25T03:22:07.655Z,20.30
2022-07-25T03:27:28.346Z,20.30
2022-07-25T03:32:49.629Z,20.20
2022-07-25T03:38:11.079Z,20.03
2022-07-25T03:43:32.019Z,19.87
2022-07-25T03:48:52.686Z,19.78
2022-07-25T03:54:16.072Z,19.76
2022-07-25T03:59:36.838Z,19.73
2022-07-25T04:04:57.495Z,19.68
2022-07-25T04:10:17.975Z,19.76
2022-07-25T04:15:38.602Z,19.94
2022-07-25T04:20:59.239Z,20.30
2022-07-25T04:26:20.434Z,20.69
2022-07-25T04:31:41.020Z,21.11
2022-07-25T04:37:02.978Z,21.52
2022-07-25T04:42:23.816Z,22.01
2022-07-25T04:47:44.410Z,22.56
2022-07-25T04:53:05.622Z,22.87
2022-07-25T04:58:26.353Z,23.29
2022-07-25T05:03:50.267Z,23.64
2022-07-25T05:09:11.520Z,23.88
2022-07-25T05:14:33.462Z,24.25
2022-07-25T05:19:54.403Z,24.47
2022-07-25T05:25:15.506Z,24.50
2022-07-25T05:30:39.730Z,24.62
2022-07-25T05:36:01.321Z,24.63
2022-07-25T05:41:22.380Z,24.90
2022-07-25T05:46:43.015Z,24.99
2022-07-25T05:52:04.721Z,25.07
2022-07-25T05:57:32.159Z,25.08
2022-07-25T06:02:53.349Z,25.02
2022-07-25T06:08:14.667Z,25.37
2022-07-25T06:13:35.851Z,25.60
2022-07-25T06:18:56.411Z,25.83
2022-07-25T06:24:17.258Z,26.05
2022-07-25T06:29:37.905Z,26.22
2022-07-25T06:34:59.310Z,26.55
2022-07-25T06:40:20.322Z,26.66
2022-07-25T06:45:43.081Z,26.87
2022-07-25T06:51:04.429Z,26.98
2022-07-25T06:56:25.147Z,27.15
2022-07-25T07:01:51.019Z,27.36
2022-07-25T07:07:12.489Z,27.63
2022-07-25T07:12:33.111Z,27.36
2022-07-25T07:17:54.474Z,27.39
2022-07-25T07:23:17.041Z,27.60
2022-07-25T07:28:39.165Z,27.46
2022-07-25T07:33:59.724Z,27.39
2022-07-25T07:39:20.578Z,27.08
2022-07-25T07:44:41.321Z,27.07
2022-07-25T07:50:01.963Z,27.02
2022-07-25T07:55:41.707Z,27.23
2022-07-25T08:01:02.253Z,27.44
2022-07-25T08:06:23.045Z,27.36
2022-07-25T08:11:43.699Z,27.26
2022-07-25T08:17:04.308Z,27.41
2022-07-25T08:22:36.216Z,27.64
2022-07-25T08:27:57.600Z,27.58
2022-07-25T08:33:18.265Z,27.54
2022-07-25T08:38:39.979Z,27.38
2022-07-25T08:44:02.883Z,27.73
2022-07-25T08:49:24.181Z,27.73
2022-07-25T08:54:47.814Z,27.76
2022-07-25T09:00:08.906Z,27.82
2022-07-25T09:05:32.124Z,27.88
2022-07-25T09:10:53.691Z,27.78
2022-07-25T09:16:14.393Z,27.79
2022-07-25T09:21:36.182Z,27.97
2022-07-25T09:26:59.772Z,28.12
2022-07-25T09:32:22.788Z,28.18
2022-07-25T09:37:43.742Z,28.35
2022-07-25T09:43:04.355Z,28.39
2022-07-25T09:48:25.047Z,28.42
2022-07-25T09:53:45.884Z,28.55
2022-07-25T09:59:07.160Z,28.62
2022-07-25T10:04:37.418Z,28.75
2022-07-25T10:10:00.083Z,28.83
2022-07-25T10:15:21.090Z,28.78
2022-07-25T10:20:43.142Z,28.88
2022-07-25T10:26:09.056Z,28.95
2022-07-25T10:31:32.993Z,28.98
2022-07-25T10:36:57.346Z,28.98
2022-07-25T10:42:21.562Z,29.08
2022-07-25T10:47:53.965Z,29.11
2022-07-25T10:53:14.910Z,29.05
2022-07-25T10:58:55.433Z,29.11
2022-07-25T11:04:16.208Z,29.25
2022-07-25T11:09:37.442Z,29.32
2022-07-25T11:15:04.439Z,29.47
2022-07-25T11:20:25.158Z,29.46
2022-07-25T11:25:45.839Z,29.50
2022-07-25T11:31:06.745Z,29.54
2022-07-25T11:36:27.622Z,29.56
2022-07-25T11:41:59.815Z,29.57
2022-07-25T11:47:29.377Z,29.63
2022-07-25T11:52:59.947Z,29.67
2022-07-25T11:58:24.009Z,29.61
2022-07-25T12:03:45.453Z,29.69
2022-07-25T12:09:21.374Z,29.71
2022-07-25T12:14:43.717Z,29.68
2022-07-25T12:20:09.202Z,29.73
2022-07-25T12:25:33.267Z,29.78
2022-07-25T12:30:56.754Z,29.75
2022-07-25T12:36:17.596Z,29.74
2022-07-25T12:41:40.099Z,29.77
2022-07-25T12:47:01.843Z,29.85
2022-07-25T12:52:22.675Z,29.95
2022-07-25T12:57:43.888Z,29.92
2022-07-25T13:03:04.926Z,29.93
2022-07-25T13:08:26.127Z,29.91
2022-07-25T13:13:46.625Z,29.93
2022-07-25T13:19:08.837Z,30.03
2022-07-25T13:24:29.923Z,30.10
2022-07-25T13:29:54.759Z,30.20
2022-07-25T13:35:20.232Z,30.24
2022-07-25T13:40:44.363Z,30.19
2022-07-25T13:46:05.458Z,30.19
2022-07-25T13:51:26.393Z,30.25
2022-07-25T13:56:47.632Z,30.27
2022-07-25T14:02:08.269Z,30.28
2022-07-25T14:07:28.672Z,30.30
2022-07-25T14:12:50.374Z,30.28
2022-07-25T14:18:11.328Z,30.34
2022-07-25T14:23:32.147Z,30.33
2022-07-25T14:28:53.139Z,30.32
2022-07-25T14:34:15.734Z,30.35
2022-07-25T14:39:36.492Z,30.40
2022-07-25T14:44:57.097Z,30.42
2022-07-25T14:50:18.011Z,30.41
2022-07-25T14:55:38.488Z,30.42
2022-07-25T15:00:59.338Z,30.45
2022-07-25T15:06:19.885Z,30.42
2022-07-25T15:11:40.725Z,30.44
2022-07-25T15:17:01.656Z,30.40
2022-07-25T15:22:22.431Z,30.40
2022-07-25T15:27:43.131Z,30.39
2022-07-25T15:33:03.761Z,30.33
2022-07-25T15:38:24.665Z,30.32
2022-07-25T15:43:45.234Z,30.28
2022-07-25T15:49:06.349Z,30.27
2022-07-25T15:54:29.558Z,30.22
2022-07-25T15:59:50.473Z,30.18
2022-07-25T16:05:11.054Z,30.20
2022-07-25T16:10:32.997Z,30.15
2022-07-25T16:15:54.133Z,30.17
2022-07-25T16:21:15.010Z,30.17
2022-07-25T16:26:35.749Z,30.16
2022-07-25T16:31:57.077Z,30.13
2022-07-25T16:37:17.902Z,30.10
2022-07-25T16:42:38.809Z,30.11
2022-07-25T16:47:59.783Z,30.06
2022-07-25T16:53:20.653Z,30.03
2022-07-25T16:58:41.685Z,29.95
2022-07-25T17:04:02.598Z,29.93
2022-07-25T17:09:25.251Z,29.86
2022-07-25T17:14:46.412Z,29.77
2022-07-25T17:20:08.274Z,29.72
2022-07-25T17:25:29.382Z,29.66
2022-07-25T17:30:50.417Z,29.61
2022-07-25T17:36:11.151Z,29.46
2022-07-25T17:41:32.007Z,29.40
2022-07-25T17:46:55.961Z,29.28
2022-07-25T17:52:17.854Z,29.13
2022-07-25T17:57:42.486Z,28.93
2022-07-25T18:03:03.443Z,28.79
2022-07-25T18:08:24.297Z,28.65
2022-07-25T18:13:44.983Z,28.51
2022-07-25T18:19:05.667Z,28.40
2022-07-25T18:24:29.370Z,28.30
2022-07-25T18:29:50.515Z,28.18
2022-07-25T18:35:11.396Z,28.08
2022-07-25T18:40:32.366Z,27.94
2022-07-25T18:45:53.260Z,27.80
2022-07-25T18:51:14.201Z,27.72
2022-07-25T18:56:35.062Z,27.62
2022-07-25T19:01:55.764Z,27.47
2022-07-25T19:07:16.679Z,27.36
2022-07-25T19:12:37.823Z,27.27
2022-07-25T19:17:58.966Z,27.18
2022-07-25T19:23:19.494Z,27.09
2022-07-25T19:28:40.107Z,27.03
2022-07-25T19:34:00.765Z,26.96
2022-07-25T19:39:22.377Z,26.96
2022-07-25T19:44:43.142Z,26.91
2022-07-25T19:50:04.458Z,26.88
2022-07-25T19:55:25.072Z,26.88
2022-07-25T20:00:45.754Z,26.83
2022-07-25T20:06:08.460Z,26.78
2022-07-25T20:11:29.717Z,26.86
2022-07-25T20:16:51.092Z,26.89
2022-07-25T20:22:11.668Z,26.83
2022-07-25T20:27:32.428Z,26.87
2022-07-25T20:32:53.908Z,26.74
2022-07-25T20:38:15.228Z,26.69
2022-07-25T20:43:37.990Z,26.54
2022-07-25T20:48:59.009Z,26.42
2022-07-25T20:54:19.651Z,26.49
2022-07-25T20:59:40.414Z,26.41
2022-07-25T21:05:01.011Z,26.31
2022-07-25T21:10:21.815Z,26.30
2022-07-25T21:15:42.785Z,26.08
2022-07-25T21:21:03.368Z,26.00
2022-07-25T21:26:23.992Z,25.96
2022-07-25T21:31:44.894Z,26.02
2022-07-25T21:37:05.791Z,26.11
2022-07-25T21:42:26.768Z,26.12
2022-07-25T21:47:47.443Z,26.10
2022-07-25T21:53:14.000Z,26.09
2022-07-25T21:58:34.853Z,25.99
2022-07-25T22:03:55.557Z,25.93
2022-07-25T22:09:16.154Z,25.77
2022-07-25T22:14:37.726Z,25.66
2022-07-25T22:19:58.472Z,25.59
2022-07-25T22:25:19.115Z,25.39
2022-07-25T22:30:39.770Z,25.40
2022-07-25T22:36:00.848Z,25.52
2022-07-25T22:41:21.542Z,25.57
2022-07-25T22:46:42.472Z,25.62
2022-07-25T22:52:03.656Z,25.60
2022-07-25T22:57:24.503Z,25.61
2022-07-25T23:02:45.201Z,25.64
2022-07-25T23:08:06.165Z,25.67
2022-07-25T23:13:26.995Z,25.67
2022-07-25T23:18:47.642Z,25.62
2022-07-25T23:24:08.459Z,25.59
2022-07-25T23:29:29.005Z,25.55
2022-07-25T23:34:49.702Z,25.50
2022-07-25T23:40:11.099Z,25.45
2022-07-25T23:45:31.960Z,25.46
2022-07-25T23:50:52.589Z,25.51
2022-07-25T23:56:17.276Z,25.49
